sensor_id;sensor_type;location;lat;lon;timestamp;P1;durP1;ratioP1;P2;durP2;ratioP2
28627;SDS011;15815;46.760;19.604;2023-03-03T00:01:25;43.10;;;25.98;;
28627;SDS011;15815;46.760;19.604;2023-03-03T00:03:51;38.63;;;25.98;;
28627;SDS011;15815;46.760;19.604;2023-03-03T00:06:17;43.55;;;27.45;;
28627;SDS011;15815;46.760;19.604;2023-03-03T00:08:46;43.47;;;27.20;;
28627;SDS011;15815;46.760;19.604;2023-03-03T00:11:12;45.35;;;28.38;;
28627;SDS011;15815;46.760;19.604;2023-03-03T00:13:40;47.17;;;28.33;;
28627;SDS011;15815;46.760;19.604;2023-03-03T00:18:44;45.95;;;29.88;;
28627;SDS011;15815;46.760;19.604;2023-03-03T00:21:19;46.67;;;28.88;;
28627;SDS011;15815;46.760;19.604;2023-03-03T00:23:46;42.20;;;28.17;;
28627;SDS011;15815;46.760;19.604;2023-03-03T00:26:17;48.10;;;29.13;;
28627;SDS011;15815;46.760;19.604;2023-03-03T00:28:47;48.63;;;30.13;;
28627;SDS011;15815;46.760;19.604;2023-03-03T00:31:18;49.92;;;30.00;;
28627;SDS011;15815;46.760;19.604;2023-03-03T00:33:47;45.78;;;30.38;;
28627;SDS011;15815;46.760;19.604;2023-03-03T00:38:42;44.05;;;28.27;;
28627;SDS011;15815;46.760;19.604;2023-03-03T00:41:19;44.63;;;28.70;;
28627;SDS011;15815;46.760;19.604;2023-03-03T00:43:48;44.88;;;29.15;;
28627;SDS011;15815;46.760;19.604;2023-03-03T00:46:18;49.35;;;29.23;;
28627;SDS011;15815;46.760;19.604;2023-03-03T00:48:48;52.00;;;30.65;;
28627;SDS011;15815;46.760;19.604;2023-03-03T00:51:28;47.60;;;30.85;;
28627;SDS011;15815;46.760;19.604;2023-03-03T00:53:57;48.08;;;30.42;;
28627;SDS011;15815;46.760;19.604;2023-03-03T00:56:23;51.88;;;32.50;;
28627;SDS011;15815;46.760;19.604;2023-03-03T00:58:50;53.80;;;31.92;;
28627;SDS011;15815;46.760;19.604;2023-03-03T01:01:18;52.90;;;30.25;;
28627;SDS011;15815;46.760;19.604;2023-03-03T01:03:44;52.53;;;32.50;;
28627;SDS011;15815;46.760;19.604;2023-03-03T01:06:10;48.42;;;31.15;;
28627;SDS011;15815;46.760;19.604;2023-03-03T01:08:36;50.42;;;30.38;;
28627;SDS011;15815;46.760;19.604;2023-03-03T01:11:03;50.25;;;32.20;;
28627;SDS011;15815;46.760;19.604;2023-03-03T01:13:33;51.33;;;34.42;;
28627;SDS011;15815;46.760;19.604;2023-03-03T01:16:00;50.28;;;33.33;;
28627;SDS011;15815;46.760;19.604;2023-03-03T01:18:31;48.83;;;31.63;;
28627;SDS011;15815;46.760;19.604;2023-03-03T01:20:57;51.97;;;33.10;;
28627;SDS011;15815;46.760;19.604;2023-03-03T01:23:25;49.22;;;31.92;;
28627;SDS011;15815;46.760;19.604;2023-03-03T01:25:55;52.00;;;32.72;;
28627;SDS011;15815;46.760;19.604;2023-03-03T01:28:20;47.33;;;31.00;;
28627;SDS011;15815;46.760;19.604;2023-03-03T01:30:53;51.88;;;32.63;;
28627;SDS011;15815;46.760;19.604;2023-03-03T01:33:18;55.30;;;33.80;;
28627;SDS011;15815;46.760;19.604;2023-03-03T01:35:45;60.22;;;35.67;;
28627;SDS011;15815;46.760;19.604;2023-03-03T01:38:11;57.45;;;34.20;;
28627;SDS011;15815;46.760;19.604;2023-03-03T01:40:37;59.90;;;35.72;;
28627;SDS011;15815;46.760;19.604;2023-03-03T01:43:03;57.30;;;33.35;;
28627;SDS011;15815;46.760;19.604;2023-03-03T01:45:30;56.80;;;35.65;;
28627;SDS011;15815;46.760;19.604;2023-03-03T01:48:05;56.05;;;33.80;;
28627;SDS011;15815;46.760;19.604;2023-03-03T01:50:48;54.17;;;34.03;;
28627;SDS011;15815;46.760;19.604;2023-03-03T01:53:23;70.30;;;44.47;;
28627;SDS011;15815;46.760;19.604;2023-03-03T01:55:55;69.53;;;45.42;;
28627;SDS011;15815;46.760;19.604;2023-03-03T01:58:30;53.35;;;35.33;;
28627;SDS011;15815;46.760;19.604;2023-03-03T02:01:21;59.85;;;38.10;;
28627;SDS011;15815;46.760;19.604;2023-03-03T02:03:48;66.47;;;41.35;;
28627;SDS011;15815;46.760;19.604;2023-03-03T02:06:16;67.55;;;39.35;;
28627;SDS011;15815;46.760;19.604;2023-03-03T02:08:48;55.83;;;33.97;;
28627;SDS011;15815;46.760;19.604;2023-03-03T02:11:19;62.17;;;39.22;;
28627;SDS011;15815;46.760;19.604;2023-03-03T02:13:47;55.50;;;33.15;;
28627;SDS011;15815;46.760;19.604;2023-03-03T02:16:13;52.38;;;31.55;;
28627;SDS011;15815;46.760;19.604;2023-03-03T02:18:40;48.80;;;29.35;;
28627;SDS011;15815;46.760;19.604;2023-03-03T02:21:11;51.88;;;31.73;;
28627;SDS011;15815;46.760;19.604;2023-03-03T02:23:49;51.08;;;32.47;;
28627;SDS011;15815;46.760;19.604;2023-03-03T02:26:39;49.53;;;32.45;;
28627;SDS011;15815;46.760;19.604;2023-03-03T02:29:07;52.78;;;33.03;;
28627;SDS011;15815;46.760;19.604;2023-03-03T02:31:37;45.50;;;30.30;;
28627;SDS011;15815;46.760;19.604;2023-03-03T02:34:03;50.88;;;31.58;;
28627;SDS011;15815;46.760;19.604;2023-03-03T02:36:34;47.20;;;29.67;;
28627;SDS011;15815;46.760;19.604;2023-03-03T02:39:08;47.83;;;31.60;;
28627;SDS011;15815;46.760;19.604;2023-03-03T02:41:46;45.42;;;30.55;;
28627;SDS011;15815;46.760;19.604;2023-03-03T02:44:20;44.85;;;30.42;;
28627;SDS011;15815;46.760;19.604;2023-03-03T02:46:48;46.85;;;30.48;;
28627;SDS011;15815;46.760;19.604;2023-03-03T02:49:16;46.67;;;29.92;;
28627;SDS011;15815;46.760;19.604;2023-03-03T02:51:49;62.95;;;39.08;;
28627;SDS011;15815;46.760;19.604;2023-03-03T02:54:17;63.60;;;41.38;;
28627;SDS011;15815;46.760;19.604;2023-03-03T02:56:44;81.35;;;46.63;;
28627;SDS011;15815;46.760;19.604;2023-03-03T02:59:12;67.10;;;43.30;;
28627;SDS011;15815;46.760;19.604;2023-03-03T03:01:38;78.38;;;46.25;;
28627;SDS011;15815;46.760;19.604;2023-03-03T03:04:08;49.88;;;32.58;;
28627;SDS011;15815;46.760;19.604;2023-03-03T03:06:36;52.13;;;32.80;;
28627;SDS011;15815;46.760;19.604;2023-03-03T03:09:04;48.03;;;31.23;;
28627;SDS011;15815;46.760;19.604;2023-03-03T03:11:30;47.90;;;28.63;;
28627;SDS011;15815;46.760;19.604;2023-03-03T03:13:56;48.67;;;29.38;;
28627;SDS011;15815;46.760;19.604;2023-03-03T03:16:22;45.20;;;29.42;;
28627;SDS011;15815;46.760;19.604;2023-03-03T03:18:48;43.42;;;28.65;;
28627;SDS011;15815;46.760;19.604;2023-03-03T03:21:13;44.28;;;28.92;;
28627;SDS011;15815;46.760;19.604;2023-03-03T03:23:39;44.85;;;28.55;;
28627;SDS011;15815;46.760;19.604;2023-03-03T03:26:05;48.38;;;29.58;;
28627;SDS011;15815;46.760;19.604;2023-03-03T03:28:31;46.28;;;29.25;;
28627;SDS011;15815;46.760;19.604;2023-03-03T03:30:59;48.22;;;28.58;;
28627;SDS011;15815;46.760;19.604;2023-03-03T03:33:24;47.08;;;28.27;;
28627;SDS011;15815;46.760;19.604;2023-03-03T03:35:50;45.72;;;29.13;;
28627;SDS011;15815;46.760;19.604;2023-03-03T03:38:16;46.03;;;29.30;;
28627;SDS011;15815;46.760;19.604;2023-03-03T03:40:41;44.47;;;28.38;;
28627;SDS011;15815;46.760;19.604;2023-03-03T03:43:09;47.17;;;28.55;;
28627;SDS011;15815;46.760;19.604;2023-03-03T03:45:35;48.10;;;29.52;;
28627;SDS011;15815;46.760;19.604;2023-03-03T03:48:00;46.85;;;29.92;;
28627;SDS011;15815;46.760;19.604;2023-03-03T03:50:26;44.80;;;29.67;;
28627;SDS011;15815;46.760;19.604;2023-03-03T03:52:51;44.83;;;28.70;;
28627;SDS011;15815;46.760;19.604;2023-03-03T03:55:17;53.58;;;31.50;;
28627;SDS011;15815;46.760;19.604;2023-03-03T03:57:43;53.88;;;32.65;;
28627;SDS011;15815;46.760;19.604;2023-03-03T04:00:09;55.00;;;34.00;;
28627;SDS011;15815;46.760;19.604;2023-03-03T04:02:35;48.15;;;29.33;;
28627;SDS011;15815;46.760;19.604;2023-03-03T04:05:01;51.38;;;30.90;;
28627;SDS011;15815;46.760;19.604;2023-03-03T04:07:28;49.60;;;29.35;;
28627;SDS011;15815;46.760;19.604;2023-03-03T04:09:53;46.85;;;30.02;;
28627;SDS011;15815;46.760;19.604;2023-03-03T04:12:20;45.42;;;28.58;;
28627;SDS011;15815;46.760;19.604;2023-03-03T04:14:45;58.40;;;35.78;;
28627;SDS011;15815;46.760;19.604;2023-03-03T04:17:15;51.35;;;35.88;;
28627;SDS011;15815;46.760;19.604;2023-03-03T04:19:43;55.20;;;34.88;;
28627;SDS011;15815;46.760;19.604;2023-03-03T04:22:09;58.90;;;38.95;;
28627;SDS011;15815;46.760;19.604;2023-03-03T04:24:34;55.80;;;33.92;;
28627;SDS011;15815;46.760;19.604;2023-03-03T04:27:01;50.05;;;31.52;;
28627;SDS011;15815;46.760;19.604;2023-03-03T04:29:26;50.78;;;32.17;;
28627;SDS011;15815;46.760;19.604;2023-03-03T04:31:52;54.42;;;31.80;;
28627;SDS011;15815;46.760;19.604;2023-03-03T04:34:17;51.55;;;31.92;;
28627;SDS011;15815;46.760;19.604;2023-03-03T04:36:43;49.63;;;31.38;;
28627;SDS011;15815;46.760;19.604;2023-03-03T04:39:08;48.83;;;30.70;;
28627;SDS011;15815;46.760;19.604;2023-03-03T04:41:39;91.03;;;56.78;;
28627;SDS011;15815;46.760;19.604;2023-03-03T04:44:05;102.32;;;62.55;;
28627;SDS011;15815;46.760;19.604;2023-03-03T04:46:30;66.95;;;42.15;;
28627;SDS011;15815;46.760;19.604;2023-03-03T04:48:57;80.25;;;46.42;;
28627;SDS011;15815;46.760;19.604;2023-03-03T04:51:23;140.38;;;75.25;;
28627;SDS011;15815;46.760;19.604;2023-03-03T04:53:48;140.18;;;77.65;;
28627;SDS011;15815;46.760;19.604;2023-03-03T04:56:15;103.97;;;60.15;;
28627;SDS011;15815;46.760;19.604;2023-03-03T04:58:40;67.18;;;44.97;;
28627;SDS011;15815;46.760;19.604;2023-03-03T05:01:06;72.00;;;48.15;;
28627;SDS011;15815;46.760;19.604;2023-03-03T05:03:35;62.70;;;42.03;;
28627;SDS011;15815;46.760;19.604;2023-03-03T05:06:00;52.40;;;34.25;;
28627;SDS011;15815;46.760;19.604;2023-03-03T05:08:26;57.97;;;34.80;;
28627;SDS011;15815;46.760;19.604;2023-03-03T05:10:52;51.70;;;30.77;;
28627;SDS011;15815;46.760;19.604;2023-03-03T05:13:19;50.22;;;29.83;;
28627;SDS011;15815;46.760;19.604;2023-03-03T05:15:51;45.53;;;29.98;;
28627;SDS011;15815;46.760;19.604;2023-03-03T05:18:20;48.40;;;30.10;;
28627;SDS011;15815;46.760;19.604;2023-03-03T05:20:49;55.88;;;30.13;;
28627;SDS011;15815;46.760;19.604;2023-03-03T05:23:22;42.70;;;27.08;;
28627;SDS011;15815;46.760;19.604;2023-03-03T05:25:48;42.03;;;29.38;;
28627;SDS011;15815;46.760;19.604;2023-03-03T05:28:15;47.03;;;29.05;;
28627;SDS011;15815;46.760;19.604;2023-03-03T05:30:42;46.47;;;28.50;;
28627;SDS011;15815;46.760;19.604;2023-03-03T05:33:08;48.92;;;28.48;;
28627;SDS011;15815;46.760;19.604;2023-03-03T05:35:37;45.08;;;28.25;;
28627;SDS011;15815;46.760;19.604;2023-03-03T05:38:04;44.20;;;28.23;;
28627;SDS011;15815;46.760;19.604;2023-03-03T05:40:30;50.00;;;29.85;;
28627;SDS011;15815;46.760;19.604;2023-03-03T05:42:55;48.42;;;29.83;;
28627;SDS011;15815;46.760;19.604;2023-03-03T05:45:21;44.28;;;29.40;;
28627;SDS011;15815;46.760;19.604;2023-03-03T05:47:47;47.20;;;28.42;;
28627;SDS011;15815;46.760;19.604;2023-03-03T05:50:13;49.28;;;28.67;;
28627;SDS011;15815;46.760;19.604;2023-03-03T05:52:38;45.58;;;28.73;;
28627;SDS011;15815;46.760;19.604;2023-03-03T05:55:04;49.92;;;29.58;;
28627;SDS011;15815;46.760;19.604;2023-03-03T05:57:31;47.63;;;27.83;;
28627;SDS011;15815;46.760;19.604;2023-03-03T05:59:56;44.47;;;27.98;;
28627;SDS011;15815;46.760;19.604;2023-03-03T06:02:22;45.97;;;28.50;;
28627;SDS011;15815;46.760;19.604;2023-03-03T06:04:48;50.17;;;31.48;;
28627;SDS011;15815;46.760;19.604;2023-03-03T06:07:13;57.22;;;33.50;;
28627;SDS011;15815;46.760;19.604;2023-03-03T06:09:39;53.80;;;34.38;;
28627;SDS011;15815;46.760;19.604;2023-03-03T06:12:05;69.53;;;39.97;;
28627;SDS011;15815;46.760;19.604;2023-03-03T06:14:31;64.95;;;42.03;;
28627;SDS011;15815;46.760;19.604;2023-03-03T06:16:57;70.88;;;43.53;;
28627;SDS011;15815;46.760;19.604;2023-03-03T06:19:24;65.95;;;42.97;;
28627;SDS011;15815;46.760;19.604;2023-03-03T06:21:49;51.88;;;34.47;;
28627;SDS011;15815;46.760;19.604;2023-03-03T06:24:20;64.13;;;38.03;;
28627;SDS011;15815;46.760;19.604;2023-03-03T06:26:46;64.53;;;37.83;;
28627;SDS011;15815;46.760;19.604;2023-03-03T06:29:14;51.88;;;32.38;;
28627;SDS011;15815;46.760;19.604;2023-03-03T06:31:39;54.00;;;33.85;;
28627;SDS011;15815;46.760;19.604;2023-03-03T06:34:05;53.50;;;33.22;;
28627;SDS011;15815;46.760;19.604;2023-03-03T06:36:35;50.00;;;30.83;;
28627;SDS011;15815;46.760;19.604;2023-03-03T06:39:01;49.75;;;31.92;;
28627;SDS011;15815;46.760;19.604;2023-03-03T06:41:26;49.88;;;30.50;;
28627;SDS011;15815;46.760;19.604;2023-03-03T06:43:53;52.45;;;32.55;;
28627;SDS011;15815;46.760;19.604;2023-03-03T06:46:19;49.13;;;30.85;;
28627;SDS011;15815;46.760;19.604;2023-03-03T06:48:44;48.75;;;31.50;;
28627;SDS011;15815;46.760;19.604;2023-03-03T06:54:09;63.33;;;39.45;;
28627;SDS011;15815;46.760;19.604;2023-03-03T06:56:55;88.32;;;52.35;;
28627;SDS011;15815;46.760;19.604;2023-03-03T06:59:23;207.60;;;116.93;;
28627;SDS011;15815;46.760;19.604;2023-03-03T07:01:51;63.38;;;39.38;;
28627;SDS011;15815;46.760;19.604;2023-03-03T07:04:23;83.82;;;53.75;;
28627;SDS011;15815;46.760;19.604;2023-03-03T07:06:51;54.15;;;34.17;;
28627;SDS011;15815;46.760;19.604;2023-03-03T07:09:22;147.00;;;69.18;;
28627;SDS011;15815;46.760;19.604;2023-03-03T07:11:59;390.00;;;163.02;;
28627;SDS011;15815;46.760;19.604;2023-03-03T07:14:27;87.80;;;47.60;;
28627;SDS011;15815;46.760;19.604;2023-03-03T07:17:00;56.88;;;32.45;;
28627;SDS011;15815;46.760;19.604;2023-03-03T07:19:30;49.97;;;30.33;;
28627;SDS011;15815;46.760;19.604;2023-03-03T07:24:40;58.67;;;35.55;;
28627;SDS011;15815;46.760;19.604;2023-03-03T07:27:24;51.15;;;32.65;;
28627;SDS011;15815;46.760;19.604;2023-03-03T07:29:52;55.10;;;35.72;;
28627;SDS011;15815;46.760;19.604;2023-03-03T07:35:24;51.30;;;30.73;;
28627;SDS011;15815;46.760;19.604;2023-03-03T07:40:51;57.92;;;32.92;;
28627;SDS011;15815;46.760;19.604;2023-03-03T07:48:45;48.15;;;31.95;;
28627;SDS011;15815;46.760;19.604;2023-03-03T07:51:56;53.75;;;32.17;;
28627;SDS011;15815;46.760;19.604;2023-03-03T07:59:34;46.55;;;31.10;;
28627;SDS011;15815;46.760;19.604;2023-03-03T08:02:08;48.33;;;30.90;;
28627;SDS011;15815;46.760;19.604;2023-03-03T08:05:12;52.97;;;32.17;;
28627;SDS011;15815;46.760;19.604;2023-03-03T08:07:45;53.83;;;32.03;;
28627;SDS011;15815;46.760;19.604;2023-03-03T08:13:26;52.20;;;32.45;;
28627;SDS011;15815;46.760;19.604;2023-03-03T08:16:39;51.35;;;31.77;;
28627;SDS011;15815;46.760;19.604;2023-03-03T08:18:43;49.15;;;28.98;;
28627;SDS011;15815;46.760;19.604;2023-03-03T08:21:21;46.47;;;30.00;;
28627;SDS011;15815;46.760;19.604;2023-03-03T08:23:49;49.75;;;28.88;;
28627;SDS011;15815;46.760;19.604;2023-03-03T08:26:16;46.97;;;29.95;;
28627;SDS011;15815;46.760;19.604;2023-03-03T08:28:43;42.42;;;29.17;;
28627;SDS011;15815;46.760;19.604;2023-03-03T08:31:09;43.05;;;28.75;;
28627;SDS011;15815;46.760;19.604;2023-03-03T08:33:34;49.17;;;31.00;;
28627;SDS011;15815;46.760;19.604;2023-03-03T08:36:01;41.85;;;28.33;;
28627;SDS011;15815;46.760;19.604;2023-03-03T08:38:27;47.30;;;32.75;;
28627;SDS011;15815;46.760;19.604;2023-03-03T08:40:52;54.28;;;33.22;;
28627;SDS011;15815;46.760;19.604;2023-03-03T08:43:18;51.83;;;32.63;;
28627;SDS011;15815;46.760;19.604;2023-03-03T08:45:48;52.55;;;32.90;;
28627;SDS011;15815;46.760;19.604;2023-03-03T08:48:15;45.47;;;29.08;;
28627;SDS011;15815;46.760;19.604;2023-03-03T08:50:41;43.40;;;26.15;;
28627;SDS011;15815;46.760;19.604;2023-03-03T08:53:11;45.75;;;29.67;;
28627;SDS011;15815;46.760;19.604;2023-03-03T08:55:38;44.92;;;27.63;;
28627;SDS011;15815;46.760;19.604;2023-03-03T08:58:04;44.70;;;28.85;;
28627;SDS011;15815;46.760;19.604;2023-03-03T09:00:29;45.15;;;27.92;;
28627;SDS011;15815;46.760;19.604;2023-03-03T09:02:58;40.80;;;27.08;;
28627;SDS011;15815;46.760;19.604;2023-03-03T09:05:29;43.40;;;28.63;;
28627;SDS011;15815;46.760;19.604;2023-03-03T09:07:55;44.30;;;27.77;;
28627;SDS011;15815;46.760;19.604;2023-03-03T09:10:23;45.05;;;29.15;;
28627;SDS011;15815;46.760;19.604;2023-03-03T09:12:49;46.72;;;29.83;;
28627;SDS011;15815;46.760;19.604;2023-03-03T09:17:49;40.72;;;26.00;;
28627;SDS011;15815;46.760;19.604;2023-03-03T09:29:17;44.42;;;27.00;;
28627;SDS011;15815;46.760;19.604;2023-03-03T09:31:49;46.15;;;29.73;;
28627;SDS011;15815;46.760;19.604;2023-03-03T09:37:00;45.03;;;27.38;;
28627;SDS011;15815;46.760;19.604;2023-03-03T09:39:28;46.10;;;27.27;;
28627;SDS011;15815;46.760;19.604;2023-03-03T09:47:38;38.45;;;26.35;;
28627;SDS011;15815;46.760;19.604;2023-03-03T09:50:29;44.58;;;28.35;;
28627;SDS011;15815;46.760;19.604;2023-03-03T09:59:15;42.45;;;27.85;;
28627;SDS011;15815;46.760;19.604;2023-03-03T10:01:29;38.85;;;26.73;;
28627;SDS011;15815;46.760;19.604;2023-03-03T10:15:02;44.30;;;27.27;;
28627;SDS011;15815;46.760;19.604;2023-03-03T10:42:26;35.45;;;23.50;;
28627;SDS011;15815;46.760;19.604;2023-03-03T10:54:23;37.38;;;23.35;;
28627;SDS011;15815;46.760;19.604;2023-03-03T11:01:58;35.42;;;23.30;;
28627;SDS011;15815;46.760;19.604;2023-03-03T11:07:24;34.88;;;24.27;;
28627;SDS011;15815;46.760;19.604;2023-03-03T11:10:16;31.42;;;23.17;;
28627;SDS011;15815;46.760;19.604;2023-03-03T11:13:06;37.92;;;24.80;;
28627;SDS011;15815;46.760;19.604;2023-03-03T11:29:23;33.15;;;22.70;;
28627;SDS011;15815;46.760;19.604;2023-03-03T11:31:55;33.15;;;22.85;;
28627;SDS011;15815;46.760;19.604;2023-03-03T11:34:41;38.05;;;23.70;;
28627;SDS011;15815;46.760;19.604;2023-03-03T11:37:16;38.90;;;24.60;;
28627;SDS011;15815;46.760;19.604;2023-03-03T11:39:48;33.72;;;23.58;;
28627;SDS011;15815;46.760;19.604;2023-03-03T11:45:03;32.40;;;22.52;;
28627;SDS011;15815;46.760;19.604;2023-03-03T11:47:38;34.93;;;21.43;;
28627;SDS011;15815;46.760;19.604;2023-03-03T11:50:21;33.92;;;21.83;;
28627;SDS011;15815;46.760;19.604;2023-03-03T11:55:26;32.47;;;23.80;;
28627;SDS011;15815;46.760;19.604;2023-03-03T11:58:07;35.22;;;23.42;;
28627;SDS011;15815;46.760;19.604;2023-03-03T12:03:26;35.88;;;24.40;;
28627;SDS011;15815;46.760;19.604;2023-03-03T12:16:58;36.08;;;24.77;;
28627;SDS011;15815;46.760;19.604;2023-03-03T12:19:34;34.10;;;25.10;;
28627;SDS011;15815;46.760;19.604;2023-03-03T12:33:16;36.22;;;26.23;;
28627;SDS011;15815;46.760;19.604;2023-03-03T12:49:06;35.80;;;26.95;;
28627;SDS011;15815;46.760;19.604;2023-03-03T12:57:26;33.15;;;22.45;;
28627;SDS011;15815;46.760;19.604;2023-03-03T13:00:14;34.33;;;23.08;;
28627;SDS011;15815;46.760;19.604;2023-03-03T13:02:57;31.55;;;21.02;;
28627;SDS011;15815;46.760;19.604;2023-03-03T13:14:20;23.60;;;14.98;;
28627;SDS011;15815;46.760;19.604;2023-03-03T13:17:07;27.85;;;18.02;;
28627;SDS011;15815;46.760;19.604;2023-03-03T13:19:55;26.77;;;17.75;;
28627;SDS011;15815;46.760;19.604;2023-03-03T13:27:51;40.05;;;26.17;;
28627;SDS011;15815;46.760;19.604;2023-03-03T13:30:34;38.38;;;27.55;;
28627;SDS011;15815;46.760;19.604;2023-03-03T13:38:31;43.38;;;26.77;;
28627;SDS011;15815;46.760;19.604;2023-03-03T13:43:42;43.28;;;28.48;;
28627;SDS011;15815;46.760;19.604;2023-03-03T14:05:02;35.60;;;24.70;;
28627;SDS011;15815;46.760;19.604;2023-03-03T14:07:42;35.30;;;25.02;;
28627;SDS011;15815;46.760;19.604;2023-03-03T14:12:41;38.92;;;25.17;;
28627;SDS011;15815;46.760;19.604;2023-03-03T14:15:27;34.95;;;24.77;;
28627;SDS011;15815;46.760;19.604;2023-03-03T14:21:06;37.15;;;26.15;;
28627;SDS011;15815;46.760;19.604;2023-03-03T14:24:05;41.15;;;27.05;;
28627;SDS011;15815;46.760;19.604;2023-03-03T14:26:45;36.83;;;25.05;;
28627;SDS011;15815;46.760;19.604;2023-03-03T14:31:47;41.10;;;28.30;;
28627;SDS011;15815;46.760;19.604;2023-03-03T14:34:14;46.95;;;30.33;;
28627;SDS011;15815;46.760;19.604;2023-03-03T14:40:20;44.28;;;27.27;;
28627;SDS011;15815;46.760;19.604;2023-03-03T14:42:48;45.13;;;29.80;;
28627;SDS011;15815;46.760;19.604;2023-03-03T14:48:23;46.60;;;31.70;;
28627;SDS011;15815;46.760;19.604;2023-03-03T14:50:51;51.95;;;33.70;;
28627;SDS011;15815;46.760;19.604;2023-03-03T14:53:29;43.85;;;31.38;;
28627;SDS011;15815;46.760;19.604;2023-03-03T14:59:16;46.25;;;32.58;;
28627;SDS011;15815;46.760;19.604;2023-03-03T15:01:45;44.63;;;31.35;;
28627;SDS011;15815;46.760;19.604;2023-03-03T15:06:41;57.45;;;39.90;;
28627;SDS011;15815;46.760;19.604;2023-03-03T15:09:23;59.53;;;39.03;;
28627;SDS011;15815;46.760;19.604;2023-03-03T15:11:55;58.53;;;39.85;;
28627;SDS011;15815;46.760;19.604;2023-03-03T15:14:28;53.15;;;38.75;;
28627;SDS011;15815;46.760;19.604;2023-03-03T15:19:52;59.08;;;35.67;;
28627;SDS011;15815;46.760;19.604;2023-03-03T15:37:04;71.85;;;47.85;;
28627;SDS011;15815;46.760;19.604;2023-03-03T15:42:26;68.70;;;44.63;;
28627;SDS011;15815;46.760;19.604;2023-03-03T15:45:15;73.38;;;47.33;;
28627;SDS011;15815;46.760;19.604;2023-03-03T15:54:03;77.47;;;48.05;;
28627;SDS011;15815;46.760;19.604;2023-03-03T15:57:03;76.65;;;51.15;;
28627;SDS011;15815;46.760;19.604;2023-03-03T16:45:25;137.93;;;82.55;;
28627;SDS011;15815;46.760;19.604;2023-03-03T16:48:01;149.90;;;87.57;;
28627;SDS011;15815;46.760;19.604;2023-03-03T16:56:15;141.25;;;82.65;;
28627;SDS011;15815;46.760;19.604;2023-03-03T17:12:39;156.35;;;91.05;;
28627;SDS011;15815;46.760;19.604;2023-03-03T17:15:19;147.32;;;85.25;;
28627;SDS011;15815;46.760;19.604;2023-03-03T17:21:10;131.20;;;78.55;;
28627;SDS011;15815;46.760;19.604;2023-03-03T17:40:28;156.45;;;89.97;;
28627;SDS011;15815;46.760;19.604;2023-03-03T17:45:58;170.05;;;97.38;;
28627;SDS011;15815;46.760;19.604;2023-03-03T17:51:18;153.05;;;88.40;;
28627;SDS011;15815;46.760;19.604;2023-03-03T18:08:08;170.35;;;98.57;;
28627;SDS011;15815;46.760;19.604;2023-03-03T18:24:34;158.18;;;82.75;;
28627;SDS011;15815;46.760;19.604;2023-03-03T18:27:47;141.88;;;78.15;;
28627;SDS011;15815;46.760;19.604;2023-03-03T18:32:46;127.03;;;69.18;;
28627;SDS011;15815;46.760;19.604;2023-03-03T18:35:24;114.93;;;64.82;;
28627;SDS011;15815;46.760;19.604;2023-03-03T18:37:51;106.07;;;60.75;;
28627;SDS011;15815;46.760;19.604;2023-03-03T18:40:28;106.88;;;59.88;;
28627;SDS011;15815;46.760;19.604;2023-03-03T18:46:06;89.25;;;48.38;;
28627;SDS011;15815;46.760;19.604;2023-03-03T18:48:52;100.65;;;52.78;;
28627;SDS011;15815;46.760;19.604;2023-03-03T18:59:09;93.72;;;51.10;;
28627;SDS011;15815;46.760;19.604;2023-03-03T19:04:53;98.25;;;56.25;;
28627;SDS011;15815;46.760;19.604;2023-03-03T19:07:51;97.70;;;56.00;;
28627;SDS011;15815;46.760;19.604;2023-03-03T19:12:52;107.13;;;58.47;;
28627;SDS011;15815;46.760;19.604;2023-03-03T19:18:00;98.07;;;55.83;;
28627;SDS011;15815;46.760;19.604;2023-03-03T19:20:52;98.15;;;54.35;;
28627;SDS011;15815;46.760;19.604;2023-03-03T19:28:54;123.57;;;67.20;;
28627;SDS011;15815;46.760;19.604;2023-03-03T19:31:50;131.73;;;69.57;;
28627;SDS011;15815;46.760;19.604;2023-03-03T19:37:26;122.30;;;67.72;;
28627;SDS011;15815;46.760;19.604;2023-03-03T19:48:50;95.10;;;53.28;;
28627;SDS011;15815;46.760;19.604;2023-03-03T19:57:08;100.68;;;55.95;;
28627;SDS011;15815;46.760;19.604;2023-03-03T19:59:42;101.55;;;56.17;;
28627;SDS011;15815;46.760;19.604;2023-03-03T20:10:36;92.60;;;52.05;;
28627;SDS011;15815;46.760;19.604;2023-03-03T20:15:41;104.70;;;60.90;;
28627;SDS011;15815;46.760;19.604;2023-03-03T20:21:28;105.32;;;58.28;;
28627;SDS011;15815;46.760;19.604;2023-03-03T20:49:57;92.60;;;52.05;;
28627;SDS011;15815;46.760;19.604;2023-03-03T21:01:27;96.38;;;57.95;;
28627;SDS011;15815;46.760;19.604;2023-03-03T21:06:51;87.90;;;53.58;;
28627;SDS011;15815;46.760;19.604;2023-03-03T21:12:28;84.75;;;48.80;;
28627;SDS011;15815;46.760;19.604;2023-03-03T21:15:00;86.80;;;50.13;;
28627;SDS011;15815;46.760;19.604;2023-03-03T21:17:34;88.47;;;51.45;;
28627;SDS011;15815;46.760;19.604;2023-03-03T21:20:44;84.30;;;49.28;;
28627;SDS011;15815;46.760;19.604;2023-03-03T21:22:59;80.75;;;46.58;;
28627;SDS011;15815;46.760;19.604;2023-03-03T21:39:18;74.00;;;43.42;;
28627;SDS011;15815;46.760;19.604;2023-03-03T21:41:49;81.93;;;46.20;;
28627;SDS011;15815;46.760;19.604;2023-03-03T21:46:58;101.22;;;57.38;;
28627;SDS011;15815;46.760;19.604;2023-03-03T21:49:24;135.15;;;76.22;;
28627;SDS011;15815;46.760;19.604;2023-03-03T21:51:50;100.15;;;53.88;;
28627;SDS011;15815;46.760;19.604;2023-03-03T21:54:15;97.28;;;52.70;;
28627;SDS011;15815;46.760;19.604;2023-03-03T21:56:41;80.00;;;46.10;;
28627;SDS011;15815;46.760;19.604;2023-03-03T21:59:09;77.55;;;45.10;;
28627;SDS011;15815;46.760;19.604;2023-03-03T22:01:42;81.88;;;45.17;;
28627;SDS011;15815;46.760;19.604;2023-03-03T22:04:14;81.82;;;44.17;;
28627;SDS011;15815;46.760;19.604;2023-03-03T22:06:40;80.60;;;46.08;;
28627;SDS011;15815;46.760;19.604;2023-03-03T22:09:07;85.22;;;46.22;;
28627;SDS011;15815;46.760;19.604;2023-03-03T22:11:32;91.38;;;49.50;;
28627;SDS011;15815;46.760;19.604;2023-03-03T22:14:01;80.82;;;45.80;;
28627;SDS011;15815;46.760;19.604;2023-03-03T22:16:27;92.78;;;50.72;;
28627;SDS011;15815;46.760;19.604;2023-03-03T22:18:52;80.80;;;46.65;;
28627;SDS011;15815;46.760;19.604;2023-03-03T22:21:18;72.18;;;42.53;;
28627;SDS011;15815;46.760;19.604;2023-03-03T22:23:45;78.28;;;45.97;;
28627;SDS011;15815;46.760;19.604;2023-03-03T22:26:10;79.63;;;44.85;;
28627;SDS011;15815;46.760;19.604;2023-03-03T22:28:36;76.47;;;44.28;;
28627;SDS011;15815;46.760;19.604;2023-03-03T22:31:01;74.10;;;42.78;;
28627;SDS011;15815;46.760;19.604;2023-03-03T22:33:27;74.75;;;42.92;;
28627;SDS011;15815;46.760;19.604;2023-03-03T22:35:54;73.45;;;43.25;;
28627;SDS011;15815;46.760;19.604;2023-03-03T22:38:19;74.07;;;42.42;;
28627;SDS011;15815;46.760;19.604;2023-03-03T22:40:45;73.88;;;42.00;;
28627;SDS011;15815;46.760;19.604;2023-03-03T22:43:10;71.55;;;40.90;;
28627;SDS011;15815;46.760;19.604;2023-03-03T22:45:36;75.90;;;43.03;;